Time;durP1;ratioP1;P1;durP2;ratioP2;P2;SDS_P1;SDS_P2;PMS_P1;PMS_P2;Temp;Humidity;BMP_temperature;BMP_pressure;BME280_temperature;BME280_humidity;BME280_pressure;Samples;Min_cycle;Max_cycle;Signal;HPM_P1;HPM_P2
2024/01/19 00:02:10;;;;;;;1999.90;999.90;;;-1.10;99.90;;;;;;4966937;28;20043;-83
2024/01/19 00:04:35;;;;;;;1999.90;999.90;;;-1.10;99.90;;;;;;4967199;28;20036;-82
2024/01/19 00:07:01;;;;;;;1999.90;999.90;;;-1.00;99.90;;;;;;4968182;28;20036;-83
2024/01/19 00:09:27;;;;;;;1999.90;999.90;;;-1.00;99.90;;;;;;4965953;28;20347;-83
2024/01/19 00:11:52;;;;;;;1999.90;999.90;;;-1.00;99.90;;;;;;4967379;28;20032;-83
2024/01/19 00:14:18;;;;;;;1999.90;999.90;;;-0.90;99.90;;;;;;4966354;28;20138;-83
2024/01/19 00:16:44;;;;;;;1999.90;999.90;;;-0.90;99.90;;;;;;4967251;28;20035;-82
2024/01/19 00:19:09;;;;;;;1999.90;999.90;;;-0.90;99.90;;;;;;4966860;28;20047;-83
2024/01/19 00:21:44;;;;;;;1999.90;999.90;;;-0.90;99.90;;;;;;4968108;28;20508;-83
2024/01/19 00:24:13;;;;;;;1999.90;999.90;;;-0.90;99.90;;;;;;4965052;28;20042;-83
2024/01/19 00:26:39;;;;;;;1999.90;999.90;;;-0.80;99.90;;;;;;4965087;28;20814;-83
2024/01/19 00:29:06;;;;;;;1999.90;999.90;;;-0.80;99.90;;;;;;4967236;28;20095;-83
2024/01/19 00:31:34;;;;;;;1999.90;999.90;;;-0.80;99.90;;;;;;4965663;28;20051;-83
2024/01/19 00:33:59;;;;;;;1999.90;999.90;;;-0.80;99.90;;;;;;4964148;28;20461;-84
2024/01/19 00:36:25;;;;;;;1999.90;999.90;;;-0.80;99.90;;;;;;4963737;28;20431;-83
2024/01/19 00:38:52;;;;;;;1999.90;999.90;;;-0.80;99.90;;;;;;4964961;28;20040;-83
2024/01/19 00:41:18;;;;;;;1999.90;999.90;;;-0.90;99.90;;;;;;4964072;28;20027;-83
2024/01/19 00:43:43;;;;;;;1999.90;999.90;;;-0.80;99.90;;;;;;4966630;28;20107;-83
2024/01/19 00:46:10;;;;;;;1999.90;999.90;;;-0.80;99.90;;;;;;4965091;28;20091;-84
2024/01/19 00:48:35;;;;;;;1999.90;999.90;;;-0.80;99.90;;;;;;4965718;28;20047;-83
2024/01/19 00:51:01;;;;;;;1999.90;999.90;;;-0.80;99.90;;;;;;4965206;28;20042;-84
2024/01/19 00:53:26;;;;;;;1999.90;999.90;;;-0.80;99.90;;;;;;4967688;28;20036;-83
2024/01/19 00:55:52;;;;;;;1999.90;999.90;;;-0.80;99.90;;;;;;4968118;28;20054;-84
2024/01/19 00:58:18;;;;;;;1999.90;999.90;;;-0.80;99.90;;;;;;4968882;28;20035;-84
2024/01/19 01:00:43;;;;;;;1999.90;999.90;;;-0.80;99.90;;;;;;4969036;28;20039;-83
2024/01/19 01:03:09;;;;;;;1999.90;999.90;;;-0.80;99.90;;;;;;4976435;28;20035;-84
2024/01/19 01:05:34;;;;;;;1999.90;999.90;;;-0.80;99.90;;;;;;4965391;28;20064;-83
2024/01/19 01:08:00;;;;;;;1999.90;999.90;;;-0.80;99.90;;;;;;4963367;28;20087;-84
2024/01/19 01:10:25;;;;;;;1999.90;999.90;;;-0.80;99.90;;;;;;4964073;28;20052;-83
2024/01/19 01:12:51;;;;;;;1999.90;999.90;;;-0.80;99.90;;;;;;4963519;28;20494;-83
2024/01/19 01:15:17;;;;;;;1999.90;999.90;;;-0.80;99.90;;;;;;4966338;28;20091;-83
2024/01/19 01:17:43;;;;;;;1999.90;999.90;;;-0.80;99.90;;;;;;4966963;28;20044;-83
2024/01/19 01:20:12;;;;;;;1999.90;999.90;;;-0.90;99.90;;;;;;4966633;28;20023;-84
2024/01/19 01:22:38;;;;;;;1999.90;999.90;;;-0.90;99.90;;;;;;4966487;28;20031;-83
2024/01/19 01:25:04;;;;;;;1999.90;999.90;;;-0.90;99.90;;;;;;4964803;28;20035;-84
2024/01/19 01:27:29;;;;;;;1999.90;999.90;;;-0.90;99.90;;;;;;4965598;28;20036;-84
2024/01/19 01:29:55;;;;;;;1999.90;999.90;;;-0.90;99.90;;;;;;4967833;28;20095;-83
2024/01/19 01:32:20;;;;;;;1999.90;999.90;;;-1.00;99.90;;;;;;4967389;28;20489;-84
2024/01/19 01:34:46;;;;;;;1999.90;999.90;;;-1.00;99.90;;;;;;4961983;28;20098;-83
2024/01/19 01:37:11;;;;;;;1999.90;999.90;;;-1.10;99.90;;;;;;4962085;28;20032;-83
2024/01/19 01:39:37;;;;;;;1999.90;999.90;;;-1.10;99.90;;;;;;4962434;28;20043;-83
2024/01/19 01:42:03;;;;;;;1999.90;999.90;;;-1.10;99.90;;;;;;4961300;28;20031;-83
2024/01/19 01:44:28;;;;;;;1999.90;999.90;;;-1.20;99.90;;;;;;4961673;28;20124;-84
2024/01/19 01:46:54;;;;;;;1999.90;999.90;;;-1.20;99.90;;;;;;4962125;28;20095;-84
2024/01/19 01:49:20;;;;;;;1999.90;999.90;;;-1.20;99.90;;;;;;4962355;28;20044;-83
2024/01/19 01:51:46;;;;;;;1999.90;999.90;;;-1.30;99.90;;;;;;4961704;28;20043;-83
2024/01/19 01:54:13;;;;;;;1999.90;999.90;;;-1.30;99.90;;;;;;4961748;28;20138;-83
2024/01/19 01:56:40;;;;;;;1999.90;999.90;;;-1.30;99.90;;;;;;4963912;28;20192;-83
2024/01/19 01:59:06;;;;;;;1999.90;999.90;;;-1.40;99.90;;;;;;4962525;28;20028;-84
2024/01/19 02:01:32;;;;;;;1999.90;999.90;;;-1.30;99.90;;;;;;4964174;28;20035;-84
2024/01/19 02:03:59;;;;;;;1999.90;999.90;;;-1.30;99.90;;;;;;4962540;28;20039;-83
2024/01/19 02:06:24;;;;;;;1999.90;999.90;;;-1.40;99.90;;;;;;4962326;28;20087;-84
2024/01/19 02:08:50;;;;;;;1999.90;999.90;;;-1.40;99.90;;;;;;4962516;28;20115;-83
2024/01/19 02:11:16;;;;;;;1999.90;999.90;;;-1.50;99.90;;;;;;4963290;28;20036;-83
2024/01/19 02:13:41;;;;;;;1999.90;999.90;;;-1.50;99.90;;;;;;4964857;28;20040;-84
2024/01/19 02:16:07;;;;;;;1999.90;999.90;;;-1.50;99.90;;;;;;4963290;28;20067;-84
2024/01/19 02:18:33;;;;;;;1999.90;999.90;;;-1.60;99.90;;;;;;4963268;28;20044;-84
2024/01/19 02:20:59;;;;;;;1999.90;999.90;;;-1.70;99.90;;;;;;4965343;28;20066;-84
2024/01/19 02:23:27;;;;;;;1999.90;999.90;;;-1.80;99.90;;;;;;4964101;28;20039;-84
2024/01/19 02:25:52;;;;;;;1999.90;999.90;;;-1.90;99.90;;;;;;4960439;28;20040;-84
2024/01/19 02:28:18;;;;;;;1999.90;999.90;;;-1.90;99.90;;;;;;4946699;28;20047;-84
2024/01/19 02:30:44;;;;;;;1999.90;999.90;;;-2.00;99.90;;;;;;4944996;29;20064;-84
2024/01/19 02:33:10;;;;;;;1999.90;999.90;;;-2.00;99.90;;;;;;4944853;28;20064;-85
2024/01/19 02:35:36;;;;;;;1999.90;999.90;;;-2.00;99.90;;;;;;4944049;28;20157;-85
2024/01/19 02:38:01;;;;;;;1999.90;999.90;;;-2.00;99.90;;;;;;4944306;28;20444;-84
2024/01/19 02:40:27;;;;;;;1999.90;999.90;;;-2.00;99.90;;;;;;4944017;28;20082;-84
2024/01/19 02:42:52;;;;;;;1999.90;999.90;;;-2.00;99.90;;;;;;4941353;29;20398;-84
2024/01/19 02:45:18;;;;;;;1999.90;999.90;;;-2.00;99.90;;;;;;4940689;28;20096;-84
2024/01/19 02:47:43;;;;;;;1999.90;999.90;;;-2.00;99.90;;;;;;4942325;29;20032;-84
2024/01/19 02:50:09;;;;;;;1999.90;999.90;;;-1.90;99.90;;;;;;4945110;29;20068;-84
2024/01/19 02:52:35;;;;;;;1999.90;999.90;;;-1.90;99.90;;;;;;4945078;28;20028;-85
2024/01/19 02:55:03;;;;;;;1999.90;999.90;;;-1.90;99.90;;;;;;4945085;28;20111;-84
2024/01/19 02:57:29;;;;;;;1999.90;999.90;;;-1.80;99.90;;;;;;4946678;28;20032;-84
2024/01/19 02:59:54;;;;;;;1999.90;999.90;;;-1.70;99.90;;;;;;4947901;28;20048;-84
2024/01/19 03:02:20;;;;;;;1999.90;999.90;;;-1.70;99.90;;;;;;4946864;28;20059;-85
2024/01/19 03:04:46;;;;;;;1999.90;999.90;;;-1.60;99.90;;;;;;4948964;28;20040;-85
2024/01/19 03:07:12;;;;;;;1999.90;999.90;;;-1.50;99.90;;;;;;4947655;29;20420;-84
2024/01/19 03:09:38;;;;;;;1999.90;999.90;;;-1.40;99.90;;;;;;4948193;29;20184;-84
2024/01/19 03:12:04;;;;;;;1999.90;999.90;;;-1.40;99.90;;;;;;4949607;28;20044;-85
2024/01/19 03:14:32;;;;;;;1999.90;999.90;;;-1.30;99.90;;;;;;4949196;28;20051;-84
2024/01/19 03:16:58;;;;;;;1999.90;999.90;;;-1.30;99.90;;;;;;4954124;28;20068;-83
2024/01/19 03:19:23;;;;;;;1999.90;999.90;;;-1.40;99.90;;;;;;4957775;28;20044;-84
2024/01/19 03:21:50;;;;;;;1999.90;999.90;;;-1.40;99.90;;;;;;4940443;28;20043;-84
2024/01/19 03:24:16;;;;;;;1999.90;999.90;;;-1.40;99.90;;;;;;4939688;28;20036;-84
2024/01/19 03:26:42;;;;;;;1999.90;999.90;;;-1.50;99.90;;;;;;4940167;28;20033;-85
2024/01/19 03:29:08;;;;;;;1999.90;999.90;;;-1.50;99.90;;;;;;4938365;29;20040;-84
2024/01/19 03:31:34;;;;;;;1999.90;999.90;;;-1.40;99.90;;;;;;4938224;29;20040;-84
2024/01/19 03:34:00;;;;;;;1999.90;999.90;;;-1.40;99.90;;;;;;4939913;28;20181;-85
2024/01/19 03:36:26;;;;;;;1999.90;999.90;;;-1.40;99.90;;;;;;4939609;28;20048;-84
2024/01/19 03:38:51;;;;;;;1999.90;999.90;;;-1.40;99.90;;;;;;4938415;28;20087;-84
2024/01/19 03:41:17;;;;;;;1999.90;999.90;;;-1.50;99.90;;;;;;4938502;28;20055;-85
2024/01/19 03:43:44;;;;;;;1999.90;999.90;;;-1.60;99.90;;;;;;4939883;28;20054;-84
2024/01/19 03:46:09;;;;;;;1999.90;999.90;;;-1.60;99.90;;;;;;4938465;28;20040;-84
2024/01/19 03:48:35;;;;;;;1999.90;999.90;;;-1.70;99.90;;;;;;4940465;28;20032;-84
2024/01/19 03:51:00;;;;;;;1999.90;999.90;;;-1.70;99.90;;;;;;4938619;29;20123;-84
2024/01/19 03:53:26;;;;;;;1999.90;999.90;;;-1.70;99.90;;;;;;4939704;28;20394;-83
2024/01/19 03:55:52;;;;;;;1999.90;999.90;;;-1.70;99.90;;;;;;4938206;29;20055;-84
2024/01/19 03:58:17;;;;;;;1999.90;999.90;;;-1.70;99.90;;;;;;4940236;28;20099;-84
2024/01/19 04:00:43;;;;;;;1999.90;999.90;;;-1.70;99.90;;;;;;4941732;28;20035;-84
2024/01/19 04:03:08;;;;;;;1999.90;999.90;;;-1.70;99.90;;;;;;4940245;28;20387;-84
2024/01/19 04:05:34;;;;;;;1999.90;999.90;;;-1.60;99.90;;;;;;4940942;28;20051;-85
2024/01/19 04:07:59;;;;;;;1999.90;999.90;;;-1.60;99.90;;;;;;4938707;29;20554;-85
2024/01/19 04:10:25;;;;;;;1999.90;999.90;;;-1.60;99.90;;;;;;4938901;28;20043;-85
2024/01/19 04:12:51;;;;;;;1999.90;999.90;;;-1.60;99.90;;;;;;4940284;28;20036;-86
2024/01/19 04:15:17;;;;;;;1999.90;999.90;;;-1.70;99.90;;;;;;4938739;29;20467;-86
2024/01/19 04:17:43;;;;;;;1999.90;999.90;;;-1.70;99.90;;;;;;4942277;28;20035;-85
2024/01/19 04:20:08;;;;;;;1999.90;999.90;;;-1.70;99.90;;;;;;4938551;28;20387;-85
2024/01/19 04:22:34;;;;;;;1999.90;999.90;;;-1.80;99.90;;;;;;4939971;28;20491;-85
2024/01/19 04:24:59;;;;;;;1999.90;999.90;;;-1.70;99.90;;;;;;4938720;29;20040;-85
2024/01/19 04:27:25;;;;;;;1999.90;999.90;;;-1.70;99.90;;;;;;4940101;28;20036;-85
2024/01/19 04:29:50;;;;;;;1999.90;999.90;;;-1.70;99.90;;;;;;4937825;29;20150;-86
2024/01/19 04:32:16;;;;;;;1999.90;999.90;;;-1.60;99.90;;;;;;4938941;28;20032;-86
2024/01/19 04:34:42;;;;;;;1999.90;999.90;;;-1.60;99.90;;;;;;4939633;28;20044;-85
2024/01/19 04:37:07;;;;;;;1999.90;999.90;;;-1.60;99.90;;;;;;4937698;29;20032;-86
2024/01/19 04:39:34;;;;;;;1999.90;999.90;;;-1.70;99.90;;;;;;4937993;28;20059;-86
2024/01/19 04:41:59;;;;;;;1999.90;999.90;;;-1.70;99.90;;;;;;4939439;28;20044;-86
2024/01/19 04:44:25;;;;;;;1999.90;999.90;;;-1.80;99.90;;;;;;4937818;28;20036;-85
2024/01/19 04:46:50;;;;;;;1999.90;999.90;;;-1.90;99.90;;;;;;4938059;28;20475;-85
2024/01/19 04:49:16;;;;;;;1999.90;999.90;;;-1.90;99.90;;;;;;4937996;28;20047;-86
2024/01/19 04:51:41;;;;;;;1999.90;999.90;;;-1.90;99.90;;;;;;4939203;28;20028;-86
2024/01/19 04:54:07;;;;;;;1999.90;999.90;;;-1.90;99.90;;;;;;4939179;28;20040;-85
2024/01/19 04:56:33;;;;;;;1999.90;999.90;;;-2.00;99.90;;;;;;4938092;28;20130;-86
2024/01/19 04:59:00;;;;;;;1999.90;999.90;;;-2.00;99.90;;;;;;4938630;28;20034;-85
2024/01/19 05:01:25;;;;;;;1999.90;999.90;;;-2.00;99.90;;;;;;4938418;29;20146;-85
2024/01/19 05:03:51;;;;;;;1999.90;999.90;;;-2.10;99.90;;;;;;4940555;28;20111;-85
2024/01/19 05:06:17;;;;;;;1999.90;999.90;;;-2.10;99.90;;;;;;4938767;28;20048;-85
2024/01/19 05:08:43;;;;;;;1999.90;999.90;;;-2.20;99.90;;;;;;4940095;28;20028;-85
2024/01/19 05:11:13;;;;;;;1999.90;999.90;;;-2.30;99.90;;;;;;4939510;28;20043;-86
2024/01/19 05:13:40;;;;;;;1999.90;999.90;;;-2.40;99.90;;;;;;4941491;28;20020;-85
2024/01/19 05:16:06;;;;;;;1999.90;999.90;;;-2.40;99.90;;;;;;4941626;29;20399;-85
2024/01/19 05:18:31;;;;;;;1999.90;999.90;;;-2.50;99.90;;;;;;4940110;29;20039;-86
2024/01/19 05:20:57;;;;;;;1999.90;999.90;;;-2.50;99.90;;;;;;4942824;28;20032;-86
2024/01/19 05:23:22;;;;;;;1999.90;999.90;;;-2.60;99.90;;;;;;4946924;28;20129;-85
2024/01/19 05:25:48;;;;;;;1999.90;999.90;;;-2.60;99.90;;;;;;4944825;28;20471;-85
2024/01/19 05:28:14;;;;;;;1999.90;999.90;;;-2.70;99.90;;;;;;4944103;28;20030;-85
2024/01/19 05:30:40;;;;;;;1999.90;999.90;;;-2.60;99.90;;;;;;4943518;29;20487;-86
2024/01/19 05:33:06;;;;;;;1999.90;999.90;;;-2.60;99.90;;;;;;4949987;28;20033;-86
2024/01/19 05:35:32;;;;;;;1999.90;999.90;;;-2.60;99.90;;;;;;4953130;28;20052;-85
2024/01/19 05:37:57;;;;;;;1999.90;999.90;;;-2.70;99.90;;;;;;4938372;28;20028;-85
2024/01/19 05:40:23;;;;;;;1999.90;999.90;;;-2.80;99.90;;;;;;4936164;29;20040;-85
2024/01/19 05:42:48;;;;;;;1999.90;999.90;;;-2.90;99.90;;;;;;4937784;28;20032;-86
2024/01/19 05:45:14;;;;;;;1999.90;999.90;;;-2.90;99.90;;;;;;4935829;29;20450;-84
2024/01/19 05:47:40;;;;;;;1999.90;999.90;;;-2.90;99.90;;;;;;4936802;28;20088;-85
2024/01/19 05:50:06;;;;;;;1999.90;999.90;;;-2.90;99.90;;;;;;4936550;29;20502;-85
2024/01/19 05:52:32;;;;;;;1999.90;999.90;;;-2.80;99.90;;;;;;4936443;29;20040;-84
2024/01/19 05:54:57;;;;;;;1999.90;999.90;;;-2.80;99.90;;;;;;4937419;28;20487;-85
2024/01/19 05:57:23;;;;;;;1999.90;999.90;;;-2.60;99.90;;;;;;4936103;28;20458;-84
2024/01/19 05:59:49;;;;;;;1999.90;999.90;;;-2.50;99.90;;;;;;4938092;28;20404;-84
2024/01/19 06:02:14;;;;;;;1999.90;999.90;;;-2.30;99.90;;;;;;4936235;29;20371;-85
2024/01/19 06:04:41;;;;;;;1999.90;999.90;;;-2.10;99.90;;;;;;4936202;29;20040;-86
2024/01/19 06:07:07;;;;;;;1999.90;999.90;;;-2.00;99.90;;;;;;4936922;29;20036;-85
2024/01/19 06:09:32;;;;;;;1999.90;999.90;;;-1.80;99.90;;;;;;4938100;28;20428;-86
2024/01/19 06:11:58;;;;;;;1999.90;999.90;;;-1.70;99.90;;;;;;4936228;29;20064;-85
2024/01/19 06:14:23;;;;;;;1999.90;999.90;;;-1.70;99.90;;;;;;4936192;29;20036;-85
2024/01/19 06:16:50;;;;;;;1999.90;999.90;;;-1.60;99.90;;;;;;4936574;29;20475;-85
2024/01/19 06:19:15;;;;;;;1999.90;999.90;;;-1.60;99.90;;;;;;4936239;28;20032;-85
2024/01/19 06:21:47;;;;;;;1999.90;999.90;;;-1.50;99.90;;;;;;4936246;29;20032;-85
2024/01/19 06:24:16;;;;;;;1999.90;999.90;;;-1.50;99.90;;;;;;4941197;28;20801;-85
2024/01/19 06:26:46;;;;;;;1999.90;999.90;;;-1.50;99.90;;;;;;4941099;28;20533;-85
2024/01/19 06:29:12;;;;;;;1999.90;999.90;;;-1.40;99.90;;;;;;4941077;28;20036;-84
2024/01/19 06:31:48;;;;;;;1999.90;999.90;;;-1.40;99.90;;;;;;4939801;29;20040;-84
2024/01/19 06:34:14;;;;;;;1999.90;999.90;;;-1.40;99.90;;;;;;4941598;28;20470;-85
2024/01/19 06:36:44;;;;;;;1999.90;999.90;;;-1.40;99.90;;;;;;4942044;28;20055;-84
2024/01/19 06:39:11;;;;;;;1999.90;999.90;;;-1.50;99.90;;;;;;4942212;28;20036;-85
2024/01/19 06:41:41;;;;;;;1999.90;999.90;;;-1.50;99.90;;;;;;4941478;28;20043;-85
2024/01/19 06:44:09;;;;;;;1999.90;999.90;;;-1.50;99.90;;;;;;4942736;28;20064;-86
2024/01/19 06:46:34;;;;;;;1999.90;999.90;;;-1.50;99.90;;;;;;4941173;29;20036;-85
2024/01/19 06:49:00;;;;;;;1999.90;999.90;;;-1.50;99.90;;;;;;4942219;28;20075;-85
2024/01/19 06:51:28;;;;;;;1999.90;999.90;;;-1.70;99.90;;;;;;4942674;29;20040;-85
2024/01/19 06:53:54;;;;;;;1999.90;999.90;;;-1.80;99.90;;;;;;4945107;28;20068;-84
2024/01/19 06:56:20;;;;;;;1999.90;999.90;;;-2.00;99.90;;;;;;4977121;23;20135;-86
2024/01/19 06:58:45;;;;;;;1999.90;999.90;;;-2.10;99.90;;;;;;4957856;28;20131;-91
2024/01/19 07:01:11;;;;;;;1999.90;999.90;;;-2.20;99.90;;;;;;4957425;28;20038;-87
2024/01/19 07:03:36;;;;;;;1999.90;999.90;;;-2.20;99.90;;;;;;4957961;28;20042;-87
2024/01/19 07:06:02;;;;;;;1999.90;999.90;;;-2.30;99.90;;;;;;4957493;28;20437;-87
2024/01/19 07:08:28;;;;;;;1999.90;999.90;;;-2.40;99.90;;;;;;4957644;28;20072;-87
2024/01/19 07:10:53;;;;;;;1999.90;999.90;;;-2.40;99.90;;;;;;4958616;28;20470;-86
2024/01/19 07:13:19;;;;;;;1999.90;999.90;;;-2.40;99.90;;;;;;4957405;28;20067;-87
2024/01/19 07:15:45;;;;;;;1999.90;999.90;;;-2.50;99.90;;;;;;4958721;28;20036;-87
2024/01/19 07:18:10;;;;;;;1999.90;999.90;;;-2.50;99.90;;;;;;4957466;28;20044;-88
2024/01/19 07:20:36;;;;;;;1999.90;999.90;;;-2.60;99.90;;;;;;4961453;28;20044;-89
2024/01/19 07:23:03;;;;;;;1999.90;999.90;;;-2.70;99.90;;;;;;4957254;28;20036;-88
2024/01/19 07:25:29;;;;;;;1999.90;999.90;;;-2.70;99.90;;;;;;4957656;28;20070;-89
2024/01/19 07:27:54;;;;;;;1999.90;999.90;;;-2.70;99.90;;;;;;4957861;28;20406;-91
2024/01/19 07:30:20;;;;;;;1999.90;999.90;;;-2.70;99.90;;;;;;4959190;28;20040;-90
2024/01/19 07:32:45;;;;;;;1999.90;999.90;;;-2.70;99.90;;;;;;4959164;28;20229;-89
2024/01/19 07:35:11;;;;;;;1999.90;999.90;;;-2.70;99.90;;;;;;4960526;28;20402;-90
2024/01/19 07:37:37;;;;;;;1999.90;999.90;;;-2.80;99.90;;;;;;4958482;28;20031;-88
2024/01/19 07:40:03;;;;;;;1999.90;999.90;;;-2.70;99.90;;;;;;4957125;28;20126;-89
2024/01/19 07:42:29;;;;;;;1999.90;999.90;;;-2.80;99.90;;;;;;4959785;28;20032;-87
2024/01/19 07:44:54;;;;;;;1999.90;999.90;;;-2.80;99.90;;;;;;4959090;28;20356;-89
2024/01/19 07:47:20;;;;;;;1999.90;999.90;;;-2.80;99.90;;;;;;4957319;28;20042;-89
2024/01/19 07:49:45;;;;;;;1999.90;999.90;;;-2.80;99.90;;;;;;4956965;28;20075;-88
2024/01/19 07:52:11;;;;;;;1999.90;999.90;;;-2.70;99.90;;;;;;4956941;28;20028;-89
2024/01/19 07:54:36;;;;;;;1999.90;999.90;;;-2.70;99.90;;;;;;4967106;28;20511;-89
2024/01/19 07:57:02;;;;;;;1999.90;999.90;;;-2.70;99.90;;;;;;4962022;28;20453;-88
2024/01/19 07:59:28;;;;;;;1999.90;999.90;;;-2.70;99.90;;;;;;4966533;28;20779;-89
2024/01/19 08:01:53;;;;;;;1999.90;999.90;;;-2.60;99.90;;;;;;4975569;28;20090;-89
2024/01/19 08:04:19;;;;;;;1999.90;999.90;;;-2.60;99.90;;;;;;4970107;28;20497;-89
2024/01/19 08:06:44;;;;;;;1999.90;999.90;;;-2.60;99.90;;;;;;4975920;28;20038;-89
2024/01/19 08:09:13;;;;;;;1999.90;999.90;;;-2.60;99.90;;;;;;4977702;28;20036;-89
2024/01/19 08:11:39;;;;;;;1999.90;999.90;;;-2.60;99.90;;;;;;4975469;28;20039;-89
2024/01/19 08:14:04;;;;;;;1999.90;999.90;;;-2.60;99.90;;;;;;4977558;28;20035;-88
2024/01/19 08:16:30;;;;;;;1999.90;999.90;;;-2.50;99.90;;;;;;4959481;28;20412;-89
2024/01/19 08:18:56;;;;;;;1999.90;999.90;;;-2.40;99.90;;;;;;4958823;28;20043;-89
2024/01/19 08:21:22;;;;;;;1999.90;999.90;;;-2.40;99.90;;;;;;4974238;28;20046;-89
2024/01/19 08:23:48;;;;;;;1999.90;999.90;;;-2.30;99.90;;;;;;4967501;28;20036;-89
2024/01/19 08:26:13;;;;;;;1999.90;999.90;;;-2.30;99.90;;;;;;4965255;28;20046;-89
2024/01/19 08:28:39;;;;;;;1999.90;999.90;;;-2.30;99.90;;;;;;4960437;28;20127;-88
2024/01/19 08:31:10;;;;;;;1999.90;999.90;;;-2.20;99.90;;;;;;4955792;28;20505;-88
2024/01/19 08:33:36;;;;;;;1999.90;999.90;;;-2.20;99.90;;;;;;4958041;28;20039;-88
2024/01/19 08:36:02;;;;;;;1999.90;999.90;;;-2.20;99.90;;;;;;4956126;28;20888;-89
2024/01/19 08:38:27;;;;;;;1999.90;999.90;;;-2.10;99.90;;;;;;4974036;28;20039;-89
2024/01/19 08:40:53;;;;;;;1999.90;999.90;;;-2.10;99.90;;;;;;4975766;28;20485;-89
2024/01/19 08:43:19;;;;;;;1999.90;999.90;;;-2.00;99.90;;;;;;4975107;28;20062;-89
2024/01/19 08:45:44;;;;;;;1999.90;999.90;;;-2.00;99.90;;;;;;4969970;28;20043;-91
2024/01/19 08:48:10;;;;;;;1999.90;999.90;;;-2.00;99.90;;;;;;4956567;28;20068;-89
2024/01/19 08:50:36;;;;;;;1999.90;999.90;;;-2.00;99.90;;;;;;4973806;28;20063;-88
2024/01/19 08:53:02;;;;;;;1999.90;999.90;;;-1.90;99.90;;;;;;4974542;28;20054;-88
2024/01/19 08:55:29;;;;;;;1999.90;999.90;;;-1.90;99.90;;;;;;4970392;28;20043;-89
2024/01/19 08:57:55;;;;;;;1999.90;999.90;;;-1.90;99.90;;;;;;4976558;28;20408;-88
2024/01/19 09:00:21;;;;;;;1999.90;999.90;;;-1.90;99.90;;;;;;4974368;28;20532;-88
2024/01/19 09:02:50;;;;;;;1999.90;999.90;;;-1.80;99.90;;;;;;4974329;28;20028;-88
2024/01/19 09:05:16;;;;;;;1999.90;999.90;;;-1.80;99.90;;;;;;4971166;28;20127;-88
2024/01/19 09:07:42;;;;;;;1999.90;999.90;;;-1.70;99.90;;;;;;4955389;28;20401;-89
2024/01/19 09:10:08;;;;;;;1999.90;999.90;;;-1.70;99.90;;;;;;4955910;28;20122;-90
2024/01/19 09:12:34;;;;;;;1999.90;999.90;;;-1.60;99.90;;;;;;4952489;28;20031;-88
2024/01/19 09:14:59;;;;;;;1999.90;999.90;;;-1.50;99.90;;;;;;4968475;28;20505;-88
2024/01/19 09:17:25;;;;;;;1999.90;999.90;;;-1.40;99.90;;;;;;4966849;28;20906;-89
2024/01/19 09:19:51;;;;;;;1999.90;999.90;;;-1.40;99.90;;;;;;4963188;28;20509;-89
2024/01/19 09:22:17;;;;;;;1999.90;999.90;;;-1.50;99.90;;;;;;4973062;28;20057;-89
2024/01/19 09:24:43;;;;;;;1999.90;999.90;;;-1.50;99.90;;;;;;4964692;28;20513;-88
2024/01/19 09:27:08;;;;;;;1999.90;999.90;;;-1.50;99.90;;;;;;4976076;28;20031;-88
2024/01/19 09:29:34;;;;;;;1999.90;999.90;;;-1.60;99.90;;;;;;4975560;28;20039;-89
2024/01/19 09:32:00;;;;;;;1999.90;999.90;;;-1.50;99.90;;;;;;4971204;28;20493;-88
2024/01/19 09:34:25;;;;;;;1999.90;999.90;;;-1.40;99.90;;;;;;4974434;28;20041;-89
2024/01/19 09:36:52;;;;;;;1999.90;999.90;;;-1.40;99.90;;;;;;4974816;28;20532;-89
2024/01/19 09:39:17;;;;;;;1999.90;999.90;;;-1.40;99.90;;;;;;4951086;28;20043;-90
2024/01/19 09:41:52;;;;;;;1999.90;999.90;;;-1.40;99.90;;;;;;4968593;28;20043;-88
2024/01/19 09:44:19;;;;;;;1999.90;999.90;;;-1.30;99.90;;;;;;4965109;28;20032;-89
2024/01/19 09:47:12;;;;;;;1999.90;999.90;;;-1.20;99.90;;;;;;4955385;28;20039;-89
2024/01/19 09:50:06;;;;;;;1999.90;999.90;;;-1.20;99.90;;;;;;4945612;28;20035;-89
2024/01/19 09:52:40;;;;;;;1999.90;999.90;;;-1.00;99.90;;;;;;4965072;28;20538;-90
2024/01/19 09:55:11;;;;;;;1999.90;999.90;;;-1.00;99.90;;;;;;4973899;28;20039;-91
2024/01/19 09:57:48;;;;;;;1999.90;999.90;;;-0.90;99.90;;;;;;4968078;28;20046;-90
2024/01/19 10:00:17;;;;;;;1999.90;999.90;;;-0.80;99.90;;;;;;4966989;28;20039;-90
2024/01/19 10:02:47;;;;;;;1999.90;999.90;;;-1.00;99.90;;;;;;4974053;28;20061;-90
2024/01/19 10:05:14;;;;;;;1999.90;999.90;;;-1.00;99.90;;;;;;4974028;28;20042;-90
2024/01/19 10:07:42;;;;;;;1999.90;999.90;;;-1.00;99.90;;;;;;4970946;28;20493;-89
2024/01/19 10:10:08;;;;;;;1999.90;999.90;;;-0.90;99.90;;;;;;4972620;28;20042;-90
2024/01/19 10:12:35;;;;;;;1999.90;999.90;;;-0.90;99.90;;;;;;4963080;28;20047;-90
2024/01/19 10:15:01;;;;;;;1999.90;999.90;;;-0.90;99.90;;;;;;4968853;28;20051;-90
2024/01/19 10:17:27;;;;;;;1999.90;999.90;;;-0.80;99.90;;;;;;4974067;28;20035;-90
2024/01/19 10:19:54;;;;;;;1999.90;999.90;;;-0.80;99.90;;;;;;4969231;28;20036;-90
2024/01/19 10:22:27;;;;;;;1999.90;999.90;;;-0.70;99.90;;;;;;4954806;28;20063;-90
2024/01/19 10:25:03;;;;;;;1999.90;999.90;;;-0.70;99.90;;;;;;4954683;28;21130;-89
2024/01/19 10:27:51;;;;;;;1999.90;999.90;;;-0.70;99.90;;;;;;4954908;28;20036;-90
2024/01/19 10:30:29;;;;;;;1999.90;999.90;;;-0.70;99.90;;;;;;4961610;28;20857;-90
2024/01/19 10:33:06;;;;;;;1999.90;999.90;;;-0.70;99.90;;;;;;4959483;28;20035;-90
2024/01/19 10:35:32;;;;;;;1999.90;999.90;;;-0.70;99.90;;;;;;4955280;28;20596;-90
2024/01/19 10:38:05;;;;;;;1999.90;999.90;;;-0.60;99.90;;;;;;4967907;28;20090;-90
2024/01/19 10:40:33;;;;;;;1999.90;999.90;;;-0.50;99.90;;;;;;4974140;28;20042;-89
2024/01/19 10:42:58;;;;;;;1999.90;999.90;;;-0.40;99.90;;;;;;4974054;28;20035;-90
2024/01/19 10:45:27;;;;;;;1999.90;999.90;;;-0.40;99.90;;;;;;4973958;28;20407;-90
2024/01/19 10:47:54;;;;;;;1999.90;999.90;;;-0.20;99.90;;;;;;4973975;28;20044;-90
2024/01/19 10:50:20;;;;;;;1999.90;999.90;;;0.20;99.90;;;;;;4968557;28;20039;-90
2024/01/19 10:52:53;;;;;;;1999.90;999.90;;;0.50;99.90;;;;;;4954510;28;20035;-90
2024/01/19 10:55:27;;;;;;;1999.90;999.90;;;0.60;99.90;;;;;;4954029;28;20043;-89
2024/01/19 10:57:54;;;;;;;1999.90;999.90;;;0.90;99.90;;;;;;4960971;28;20047;-90
2024/01/19 11:00:21;;;;;;;1999.90;999.90;;;1.00;99.90;;;;;;4971402;28;20039;-90
2024/01/19 11:02:49;;;;;;;1999.90;999.90;;;1.10;99.90;;;;;;4960588;28;20040;-90
2024/01/19 11:05:18;;;;;;;1999.90;999.90;;;1.30;99.90;;;;;;4973356;28;20038;-90
2024/01/19 11:07:44;;;;;;;1999.90;999.90;;;1.30;99.90;;;;;;4975047;28;20122;-90
2024/01/19 11:10:09;;;;;;;1999.90;999.90;;;1.20;99.90;;;;;;4974109;28;20389;-90
2024/01/19 11:12:38;;;;;;;1999.90;999.90;;;1.10;99.90;;;;;;4957703;28;20032;-90
2024/01/19 11:15:07;;;;;;;1999.90;999.90;;;0.90;99.90;;;;;;4957426;28;20044;-90
2024/01/19 11:17:33;;;;;;;1999.90;999.90;;;0.80;99.90;;;;;;4958815;28;20043;-90
2024/01/19 11:19:59;;;;;;;1999.90;999.90;;;0.70;99.90;;;;;;4957215;28;20040;-90
2024/01/19 11:22:26;;;;;;;1999.90;999.90;;;0.70;99.90;;;;;;4956442;28;20031;-92
2024/01/19 11:24:58;;;;;;;1999.90;999.90;;;0.80;99.90;;;;;;4960213;28;20094;-89
2024/01/19 11:27:36;;;;;;;1999.90;999.90;;;0.80;99.90;;;;;;4967218;28;20027;-90
2024/01/19 11:30:14;;;;;;;1999.90;999.90;;;0.70;99.90;;;;;;4957738;28;20563;-89
2024/01/19 11:32:39;;;;;;;1999.90;999.90;;;0.80;99.90;;;;;;4977953;28;20143;-90
2024/01/19 11:35:05;;;;;;;1999.90;999.90;;;0.90;99.90;;;;;;4976325;28;20527;-90
2024/01/19 11:37:44;;;;;;;1999.90;999.90;;;0.80;99.90;;;;;;4976434;28;20085;-91
2024/01/19 11:40:31;;;;;;;1999.90;999.90;;;0.80;99.90;;;;;;4963781;28;20047;-89
2024/01/19 11:42:56;;;;;;;1999.90;999.90;;;0.80;99.90;;;;;;4947870;28;20845;-91
2024/01/19 11:45:40;;;;;;;1999.90;999.90;;;0.80;99.90;;;;;;4970797;28;20039;-89
2024/01/19 11:48:07;;;;;;;1999.90;999.90;;;0.60;99.90;;;;;;4976268;28;20039;-90
2024/01/19 11:50:43;;;;;;;1999.90;999.90;;;0.50;99.90;;;;;;4967836;28;20067;-90
2024/01/19 11:53:10;;;;;;;1999.90;999.90;;;0.40;99.90;;;;;;4966933;28;20589;-90
2024/01/19 11:55:46;;;;;;;1999.90;999.90;;;0.40;99.90;;;;;;4975423;28;20057;-90
2024/01/19 11:58:39;;;;;;;1999.90;999.90;;;0.50;99.90;;;;;;4964674;28;20035;-89
2024/01/19 12:01:07;;;;;;;1999.90;999.90;;;0.50;99.90;;;;;;4956510;28;20038;-91